Hiyodori — JD2366 — position and weather

sailwx.info

Track history (hours):
 
Tides and Currents Weather Stations Pressure Air Temp Water Temp Dewpoint Dewpoint Depression Visibility Wind Speed Wind Dir Waves Ship Positions

Hiyodori

Last reported at 2017-Mar-25 07:32 UTC. Time now 2017-Mar-26 13:09 UTC.
Position N 35°08' E 139°43'.

Length 88 m; draft 3.6 m.

Type: Cargo ship. MMSI: 431000132.

Date/timePositionNaut miles runAvg speedWind from/ knotsBaromVisibWave heightAir tempDewpointWater temp
2017-Mar-25 07:32N 35°08' E 139°43'1111.0
2017-Mar-25 06:33N 35°19' E 139°44'1110.7
2017-Mar-25 05:33N 35°29' E 139°45'2 1.9
2017-Mar-25 04:33N 35°27' E 139°46'1110.9
2017-Mar-25 03:33N 35°16' E 139°46'7 0.2
2017-Mar-23 15:32N 35°10' E 139°44'1111.2
2017-Mar-23 14:34N 35°21' E 139°42'4 3.6
2017-Mar-23 13:33N 35°24' E 139°41'0 0.0
2017-Mar-23 12:33N 35°24' E 139°41'0 0.0
2017-Mar-23 11:33N 35°24' E 139°41'0 0.0
2017-Mar-23 10:33N 35°24' E 139°41'3 2.6
2017-Mar-23 09:32N 35°23' E 139°44'0 0.0
2017-Mar-23 08:32N 35°23' E 139°44'0 0.0
2017-Mar-23 07:32N 35°23' E 139°44'1 1.1
2017-Mar-23 06:33N 35°24' E 139°45'1110.6
2017-Mar-23 05:33N 35°34' E 139°48'3 2.6
2017-Mar-23 04:28N 35°36' E 139°46'0 0.0
2017-Mar-23 03:19N 35°36' E 139°46'0 0.0
2017-Mar-23 02:25N 35°36' E 139°46'0 0.0
2017-Mar-23 01:16N 35°36' E 139°46'1 1.6
2017-Mar-23 00:33N 35°35' E 139°47'6 6.3
2017-Mar-22 23:33N 35°31' E 139°53'8 7.6
2017-Mar-22 22:33N 35°25' E 139°47'1110.8
2017-Mar-22 21:33N 35°14' E 139°47'23 0.5
2017-Mar-21 00:28N 34°58' E 139°27'1212.6
2017-Mar-20 23:33N 35°05' E 139°38'1212.0
2017-Mar-20 22:34N 35°15' E 139°46'1010.2
2017-Mar-20 21:34N 35°25' E 139°44'1110.9
2017-Mar-20 20:33N 35°34' E 139°53'0 0.0
2017-Mar-20 18:28N 35°34' E 139°53'0 0.1
2017-Mar-20 17:31N 35°34' E 139°53'0 0.0
2017-Mar-20 16:31N 35°34' E 139°53'0 0.0
2017-Mar-20 15:28N 35°34' E 139°53'0 0.0
2017-Mar-20 14:28N 35°34' E 139°53'0 0.0
2017-Mar-20 13:31N 35°34' E 139°53'0 0.0
2017-Mar-20 12:31N 35°34' E 139°53'0 0.0
2017-Mar-20 11:31N 35°34' E 139°53'0 0.0
2017-Mar-20 10:22N 35°34' E 139°53'0 0.0
2017-Mar-20 09:31N 35°34' E 139°53'0 0.0
2017-Mar-20 08:28N 35°34' E 139°53'0 0.1
2017-Mar-20 07:25N 35°34' E 139°53'6 7.4
2017-Mar-20 06:34N 35°36' E 139°46'0 0.0
2017-Mar-20 05:32N 35°36' E 139°46'0 0.0
2017-Mar-20 04:32N 35°36' E 139°46'0 0.0
2017-Mar-20 03:32N 35°36' E 139°46'0 0.0
2017-Mar-20 02:32N 35°36' E 139°46'0 0.0
2017-Mar-20 01:32N 35°36' E 139°46'0 0.0
2017-Mar-20 00:32N 35°36' E 139°46'3 3.2
2017-Mar-19 23:33N 35°34' E 139°49'3 3.0
2017-Mar-19 22:33N 35°34' E 139°53'0 0.0
2017-Mar-19 21:33N 35°34' E 139°53'0 0.0
2017-Mar-19 20:33N 35°34' E 139°53'0 0.0
2017-Mar-19 19:33N 35°34' E 139°53'0 0.0
2017-Mar-19 18:33N 35°34' E 139°53'0 0.0
2017-Mar-19 17:33N 35°34' E 139°53'0 0.0
2017-Mar-19 16:33N 35°34' E 139°53'0 0.0
2017-Mar-19 15:33N 35°34' E 139°53'0 0.0
2017-Mar-19 14:33N 35°34' E 139°53'0 0.0
2017-Mar-19 13:33N 35°34' E 139°53'0 0.0
2017-Mar-19 12:33N 35°34' E 139°53'0 0.0
2017-Mar-19 11:33N 35°34' E 139°53'8 7.9
2017-Mar-19 10:33N 35°27' E 139°49'1110.9
2017-Mar-19 09:33N 35°16' E 139°46'1211.7
2017-Mar-19 08:33N 35°05' E 139°42'14 0.8
2017-Mar-18 15:19N 34°58' E 139°28'911.8
2017-Mar-18 14:33N 35°04' E 139°36'1211.9
2017-Mar-18 13:33N 35°13' E 139°46'1212.0
2017-Mar-18 12:33N 35°24' E 139°41'0 0.4
2017-Mar-18 11:31N 35°24' E 139°41'1 0.9
2017-Mar-18 10:34N 35°23' E 139°40'4 4.3
2017-Mar-18 09:33N 35°26' E 139°44'4 3.4
2017-Mar-18 08:32N 35°29' E 139°45'0 0.0
2017-Mar-18 07:32N 35°29' E 139°45'0 0.0
2017-Mar-18 06:32N 35°29' E 139°45'0 0.0
2017-Mar-18 05:32N 35°29' E 139°45'0 0.0
2017-Mar-18 04:33N 35°29' E 139°45'6 6.1
2017-Mar-18 03:33N 35°23' E 139°46'1110.5
2017-Mar-18 02:33N 35°13' E 139°47'1111.3
2017-Mar-18 01:33N 35°03' E 139°40'12 0.3
2017-Mar-16 11:29N 34°57' E 139°27'1112.3
2017-Mar-16 10:33N 35°04' E 139°38'1211.8
2017-Mar-16 09:33N 35°14' E 139°46'1110.8
2017-Mar-16 08:33N 35°24' E 139°43'1110.8
2017-Mar-16 07:33N 35°33' E 139°50'4 4.4
2017-Mar-16 06:33N 35°36' E 139°46'0 0.0
2017-Mar-16 05:33N 35°36' E 139°46'0 0.0
2017-Mar-16 04:33N 35°36' E 139°46'0 0.0
2017-Mar-16 03:27N 35°36' E 139°46'0 0.0
2017-Mar-16 02:33N 35°36' E 139°46'7 6.3
2017-Mar-16 01:31N 35°33' E 139°53'0 0.1
2017-Mar-16 00:31N 35°33' E 139°53'0 0.1
2017-Mar-15 23:33N 35°33' E 139°53'9 9.4
2017-Mar-15 22:33N 35°25' E 139°47'1110.6
2017-Mar-15 21:33N 35°14' E 139°47'1111.3
2017-Mar-15 20:33N 35°04' E 139°41'  
Track history (hours):
 
Tides and Currents Weather Stations Pressure Air Temp Water Temp Dewpoint Dewpoint Depression Visibility Wind Speed Wind Dir Waves Ship Positions

Hiyodori

Last reported at 2017-Mar-25 07:32 UTC. Time now 2017-Mar-26 13:09 UTC.
Position N 35°08' E 139°43'.

Length 88 m; draft 3.6 m.

Type: Cargo ship. MMSI: 431000132.

Date/timePositionNaut miles runAvg speedWind from/ knotsBaromVisibWave heightAir tempDewpointWater temp
2017-Mar-25 07:32N 35°08' E 139°43'1111.0
2017-Mar-25 06:33N 35°19' E 139°44'1110.7
2017-Mar-25 05:33N 35°29' E 139°45'2 1.9
2017-Mar-25 04:33N 35°27' E 139°46'1110.9
2017-Mar-25 03:33N 35°16' E 139°46'7 0.2
2017-Mar-23 15:32N 35°10' E 139°44'1111.2
2017-Mar-23 14:34N 35°21' E 139°42'4 3.6
2017-Mar-23 13:33N 35°24' E 139°41'0 0.0
2017-Mar-23 12:33N 35°24' E 139°41'0 0.0
2017-Mar-23 11:33N 35°24' E 139°41'0 0.0
2017-Mar-23 10:33N 35°24' E 139°41'3 2.6
2017-Mar-23 09:32N 35°23' E 139°44'0 0.0
2017-Mar-23 08:32N 35°23' E 139°44'0 0.0
2017-Mar-23 07:32N 35°23' E 139°44'1 1.1
2017-Mar-23 06:33N 35°24' E 139°45'1110.6
2017-Mar-23 05:33N 35°34' E 139°48'3 2.6
2017-Mar-23 04:28N 35°36' E 139°46'0 0.0
2017-Mar-23 03:19N 35°36' E 139°46'0 0.0
2017-Mar-23 02:25N 35°36' E 139°46'0 0.0
2017-Mar-23 01:16N 35°36' E 139°46'1 1.6
2017-Mar-23 00:33N 35°35' E 139°47'6 6.3
2017-Mar-22 23:33N 35°31' E 139°53'8 7.6
2017-Mar-22 22:33N 35°25' E 139°47'1110.8
2017-Mar-22 21:33N 35°14' E 139°47'23 0.5
2017-Mar-21 00:28N 34°58' E 139°27'1212.6
2017-Mar-20 23:33N 35°05' E 139°38'1212.0
2017-Mar-20 22:34N 35°15' E 139°46'1010.2
2017-Mar-20 21:34N 35°25' E 139°44'1110.9
2017-Mar-20 20:33N 35°34' E 139°53'0 0.0
2017-Mar-20 18:28N 35°34' E 139°53'0 0.1
2017-Mar-20 17:31N 35°34' E 139°53'0 0.0
2017-Mar-20 16:31N 35°34' E 139°53'0 0.0
2017-Mar-20 15:28N 35°34' E 139°53'0 0.0
2017-Mar-20 14:28N 35°34' E 139°53'0 0.0
2017-Mar-20 13:31N 35°34' E 139°53'0 0.0
2017-Mar-20 12:31N 35°34' E 139°53'0 0.0
2017-Mar-20 11:31N 35°34' E 139°53'0 0.0
2017-Mar-20 10:22N 35°34' E 139°53'0 0.0
2017-Mar-20 09:31N 35°34' E 139°53'0 0.0
2017-Mar-20 08:28N 35°34' E 139°53'0 0.1
2017-Mar-20 07:25N 35°34' E 139°53'6 7.4
2017-Mar-20 06:34N 35°36' E 139°46'0 0.0
2017-Mar-20 05:32N 35°36' E 139°46'0 0.0
2017-Mar-20 04:32N 35°36' E 139°46'0 0.0
2017-Mar-20 03:32N 35°36' E 139°46'0 0.0
2017-Mar-20 02:32N 35°36' E 139°46'0 0.0
2017-Mar-20 01:32N 35°36' E 139°46'0 0.0
2017-Mar-20 00:32N 35°36' E 139°46'3 3.2
2017-Mar-19 23:33N 35°34' E 139°49'3 3.0
2017-Mar-19 22:33N 35°34' E 139°53'0 0.0
2017-Mar-19 21:33N 35°34' E 139°53'0 0.0
2017-Mar-19 20:33N 35°34' E 139°53'0 0.0
2017-Mar-19 19:33N 35°34' E 139°53'0 0.0
2017-Mar-19 18:33N 35°34' E 139°53'0 0.0
2017-Mar-19 17:33N 35°34' E 139°53'0 0.0
2017-Mar-19 16:33N 35°34' E 139°53'0 0.0
2017-Mar-19 15:33N 35°34' E 139°53'0 0.0
2017-Mar-19 14:33N 35°34' E 139°53'0 0.0
2017-Mar-19 13:33N 35°34' E 139°53'0 0.0
2017-Mar-19 12:33N 35°34' E 139°53'0 0.0
2017-Mar-19 11:33N 35°34' E 139°53'8 7.9
2017-Mar-19 10:33N 35°27' E 139°49'1110.9
2017-Mar-19 09:33N 35°16' E 139°46'1211.7
2017-Mar-19 08:33N 35°05' E 139°42'14 0.8
2017-Mar-18 15:19N 34°58' E 139°28'911.8
2017-Mar-18 14:33N 35°04' E 139°36'1211.9
2017-Mar-18 13:33N 35°13' E 139°46'1212.0
2017-Mar-18 12:33N 35°24' E 139°41'0 0.4
2017-Mar-18 11:31N 35°24' E 139°41'1 0.9
2017-Mar-18 10:34N 35°23' E 139°40'4 4.3
2017-Mar-18 09:33N 35°26' E 139°44'4 3.4
2017-Mar-18 08:32N 35°29' E 139°45'0 0.0
2017-Mar-18 07:32N 35°29' E 139°45'0 0.0
2017-Mar-18 06:32N 35°29' E 139°45'0 0.0
2017-Mar-18 05:32N 35°29' E 139°45'0 0.0
2017-Mar-18 04:33N 35°29' E 139°45'6 6.1
2017-Mar-18 03:33N 35°23' E 139°46'1110.5
2017-Mar-18 02:33N 35°13' E 139°47'1111.3
2017-Mar-18 01:33N 35°03' E 139°40'12 0.3
2017-Mar-16 11:29N 34°57' E 139°27'1112.3
2017-Mar-16 10:33N 35°04' E 139°38'1211.8
2017-Mar-16 09:33N 35°14' E 139°46'1110.8
2017-Mar-16 08:33N 35°24' E 139°43'1110.8
2017-Mar-16 07:33N 35°33' E 139°50'4 4.4
2017-Mar-16 06:33N 35°36' E 139°46'0 0.0
2017-Mar-16 05:33N 35°36' E 139°46'0 0.0
2017-Mar-16 04:33N 35°36' E 139°46'0 0.0
2017-Mar-16 03:27N 35°36' E 139°46'0 0.0
2017-Mar-16 02:33N 35°36' E 139°46'7 6.3
2017-Mar-16 01:31N 35°33' E 139°53'0 0.1
2017-Mar-16 00:31N 35°33' E 139°53'0 0.1
2017-Mar-15 23:33N 35°33' E 139°53'9 9.4
2017-Mar-15 22:33N 35°25' E 139°47'1110.6
2017-Mar-15 21:33N 35°14' E 139°47'1111.3
2017-Mar-15 20:33N 35°04' E 139°41'  

Dump ship's entire track history